This is the latest recevied weather packets stored in our database for station/object KP3M-5. If no packets are shown the sender has not sent any weather packets the latest 10 day(s).
| Time | Temp. | Humidity | Pressure | Rain* | Wind** | Luminosity | Snow |
|---|---|---|---|---|---|---|---|
| 1788645904 | 27.22° C | 82% | 1024 hPa | - | - | - | - |
| 1788642304 | 28.33° C | 78% | 1024 hPa | - | - | - | - |
| 1788638704 | 28.89° C | 75% | 1024 hPa | - | - | - | - |
| 1788635140 | 30° C | 71% | 1024 hPa | - | - | - | - |
| 1788631504 | 29.44° C | 72% | 1024 hPa | - | - | - | - |
| 1788627906 | 29.44° C | 73% | 1024 hPa | - | - | - | - |
| 1788624303 | 28.89° C | 77% | 1024 hPa | - | - | - | - |
| 1788620712 | 28.33° C | 77% | 1024 hPa | - | - | - | - |
| 1788617105 | 27.78° C | 80% | 1024 hPa | - | - | - | - |
| 1788613504 | 26.11° C | 85% | 1024 hPa | - | - | - | - |
| 1788609904 | 25.56° C | 86% | 1024 hPa | - | - | - | - |
| 1788606304 | 23.33° C | 91% | 1024 hPa | - | - | - | - |
| 1788602703 | 23.33° C | 91% | 1024 hPa | - | - | - | - |
| 1788599104 | 23.33° C | 92% | 1024 hPa | - | - | - | - |
| 1788595505 | 22.78° C | 91% | 1024 hPa | - | - | - | - |
| 1788559504 | 27.78° C | 74% | 1024 hPa | - | - | - | - |
| 1788555904 | 30° C | 67% | 1024 hPa | - | - | - | - |
| 1788552305 | 31.11° C | 63% | 1024 hPa | - | - | - | - |
| 1788548704 | 31.11° C | 60% | 1024 hPa | - | - | - | - |
| 1788545104 | 30.56° C | 59% | 1024 hPa | - | - | - | - |
| 1788541504 | 30° C | 61% | 1024 hPa | - | - | - | - |
| 1788537904 | 29.44° C | 65% | 1024 hPa | - | - | - | - |
| 1788534304 | 28.89° C | 69% | 1024 hPa | - | - | - | - |
| 1788530704 | 28.33° C | 74% | 1024 hPa | - | - | - | - |
| 1788527103 | 26.11° C | 85% | 1024 hPa | - | - | - | - |
* Rain since midnight (hover to see other rain measurements)
** Current wind speed in m/s (hover to see current wind gust speed)